sensor_id;sensor_type;location;lat;lon;timestamp;temperature;humidity
24902;DHT22;31328;51.402;0.016;2024-01-15T00:00:50;4.90;99.00
24902;DHT22;31328;51.402;0.016;2024-01-15T00:03:17;4.90;99.10
24902;DHT22;31328;51.402;0.016;2024-01-15T00:05:43;4.80;99.00
24902;DHT22;31328;51.402;0.016;2024-01-15T00:08:10;4.80;99.00
24902;DHT22;31328;51.402;0.016;2024-01-15T00:10:36;4.70;99.00
24902;DHT22;31328;51.402;0.016;2024-01-15T00:13:03;4.70;99.10
24902;DHT22;31328;51.402;0.016;2024-01-15T00:15:29;4.70;99.10
24902;DHT22;31328;51.402;0.016;2024-01-15T00:17:56;4.60;99.10
24902;DHT22;31328;51.402;0.016;2024-01-15T00:20:22;4.50;99.10
24902;DHT22;31328;51.402;0.016;2024-01-15T00:22:49;4.40;99.10
24902;DHT22;31328;51.402;0.016;2024-01-15T00:25:15;4.50;99.10
24902;DHT22;31328;51.402;0.016;2024-01-15T00:27:41;4.40;99.00
24902;DHT22;31328;51.402;0.016;2024-01-15T00:30:08;4.40;99.00
24902;DHT22;31328;51.402;0.016;2024-01-15T00:32:35;4.40;99.00
24902;DHT22;31328;51.402;0.016;2024-01-15T00:35:01;4.30;99.00
24902;DHT22;31328;51.402;0.016;2024-01-15T00:37:29;4.30;99.00
24902;DHT22;31328;51.402;0.016;2024-01-15T00:39:56;4.20;99.00
24902;DHT22;31328;51.402;0.016;2024-01-15T00:42:22;4.20;99.00
24902;DHT22;31328;51.402;0.016;2024-01-15T00:44:48;4.20;98.80
24902;DHT22;31328;51.402;0.016;2024-01-15T00:47:15;4.10;98.90
24902;DHT22;31328;51.402;0.016;2024-01-15T00:49:41;4.20;99.00
24902;DHT22;31328;51.402;0.016;2024-01-15T00:52:08;4.10;98.90
24902;DHT22;31328;51.402;0.016;2024-01-15T00:54:34;4.00;98.80
24902;DHT22;31328;51.402;0.016;2024-01-15T00:57:00;4.00;98.80
24902;DHT22;31328;51.402;0.016;2024-01-15T00:59:27;4.00;98.80
24902;DHT22;31328;51.402;0.016;2024-01-15T01:01:53;4.00;98.80
24902;DHT22;31328;51.402;0.016;2024-01-15T01:04:20;3.90;98.70
24902;DHT22;31328;51.402;0.016;2024-01-15T01:06:46;3.90;98.80
24902;DHT22;31328;51.402;0.016;2024-01-15T01:09:12;3.90;98.80
24902;DHT22;31328;51.402;0.016;2024-01-15T01:11:39;3.80;98.80
24902;DHT22;31328;51.402;0.016;2024-01-15T01:14:05;3.80;98.80
24902;DHT22;31328;51.402;0.016;2024-01-15T01:16:32;3.70;98.80
24902;DHT22;31328;51.402;0.016;2024-01-15T01:19:07;3.70;98.80
24902;DHT22;31328;51.402;0.016;2024-01-15T01:21:34;3.60;98.80
24902;DHT22;31328;51.402;0.016;2024-01-15T01:24:00;3.60;98.80
24902;DHT22;31328;51.402;0.016;2024-01-15T01:26:26;3.50;98.80
24902;DHT22;31328;51.402;0.016;2024-01-15T01:28:53;3.50;98.80
24902;DHT22;31328;51.402;0.016;2024-01-15T01:31:19;3.40;98.80
24902;DHT22;31328;51.402;0.016;2024-01-15T01:33:45;3.40;98.80
24902;DHT22;31328;51.402;0.016;2024-01-15T01:36:12;3.40;98.80
24902;DHT22;31328;51.402;0.016;2024-01-15T01:38:39;3.30;98.80
24902;DHT22;31328;51.402;0.016;2024-01-15T01:41:06;3.30;98.80
24902;DHT22;31328;51.402;0.016;2024-01-15T01:43:32;3.30;98.90
24902;DHT22;31328;51.402;0.016;2024-01-15T01:46:00;3.30;98.90
24902;DHT22;31328;51.402;0.016;2024-01-15T01:48:27;3.20;98.90
24902;DHT22;31328;51.402;0.016;2024-01-15T01:50:56;3.20;98.80
24902;DHT22;31328;51.402;0.016;2024-01-15T01:53:24;3.20;98.90
24902;DHT22;31328;51.402;0.016;2024-01-15T01:55:52;3.10;98.90
24902;DHT22;31328;51.402;0.016;2024-01-15T01:58:19;3.10;98.90
24902;DHT22;31328;51.402;0.016;2024-01-15T02:00:47;3.10;98.90
24902;DHT22;31328;51.402;0.016;2024-01-15T02:03:14;2.90;98.80
24902;DHT22;31328;51.402;0.016;2024-01-15T02:05:40;2.90;98.80
24902;DHT22;31328;51.402;0.016;2024-01-15T02:08:08;2.80;98.90
24902;DHT22;31328;51.402;0.016;2024-01-15T02:10:35;2.90;99.00
24902;DHT22;31328;51.402;0.016;2024-01-15T02:13:01;2.80;99.00
24902;DHT22;31328;51.402;0.016;2024-01-15T02:15:28;2.80;99.10
24902;DHT22;31328;51.402;0.016;2024-01-15T02:20:28;2.70;99.10
24902;DHT22;31328;51.402;0.016;2024-01-15T02:23:01;2.60;99.10
24902;DHT22;31328;51.402;0.016;2024-01-15T02:25:27;2.60;99.10
24902;DHT22;31328;51.402;0.016;2024-01-15T02:27:54;2.60;99.20
24902;DHT22;31328;51.402;0.016;2024-01-15T02:30:21;2.50;99.10
24902;DHT22;31328;51.402;0.016;2024-01-15T02:32:48;2.40;99.20
24902;DHT22;31328;51.402;0.016;2024-01-15T02:35:14;2.40;99.20
24902;DHT22;31328;51.402;0.016;2024-01-15T02:37:41;2.40;99.30
24902;DHT22;31328;51.402;0.016;2024-01-15T02:40:08;2.40;99.30
24902;DHT22;31328;51.402;0.016;2024-01-15T02:42:34;2.40;99.30
24902;DHT22;31328;51.402;0.016;2024-01-15T02:45:01;2.40;99.30
24902;DHT22;31328;51.402;0.016;2024-01-15T02:47:27;2.30;99.20
24902;DHT22;31328;51.402;0.016;2024-01-15T02:49:53;2.40;99.30
24902;DHT22;31328;51.402;0.016;2024-01-15T02:52:20;2.40;99.30
24902;DHT22;31328;51.402;0.016;2024-01-15T02:54:46;2.40;99.30
24902;DHT22;31328;51.402;0.016;2024-01-15T02:57:13;2.30;99.20
24902;DHT22;31328;51.402;0.016;2024-01-15T02:59:39;2.40;99.30
24902;DHT22;31328;51.402;0.016;2024-01-15T03:02:05;2.60;99.30
24902;DHT22;31328;51.402;0.016;2024-01-15T03:04:31;2.30;99.30
24902;DHT22;31328;51.402;0.016;2024-01-15T03:06:58;2.20;99.30
24902;DHT22;31328;51.402;0.016;2024-01-15T03:09:24;2.20;99.40
24902;DHT22;31328;51.402;0.016;2024-01-15T03:11:50;2.10;99.30
24902;DHT22;31328;51.402;0.016;2024-01-15T03:14:17;2.20;99.40
24902;DHT22;31328;51.402;0.016;2024-01-15T03:16:43;2.20;99.40
24902;DHT22;31328;51.402;0.016;2024-01-15T03:19:10;2.20;99.40
24902;DHT22;31328;51.402;0.016;2024-01-15T03:21:36;2.10;99.40
24902;DHT22;31328;51.402;0.016;2024-01-15T03:24:02;2.10;99.50
24902;DHT22;31328;51.402;0.016;2024-01-15T03:26:29;2.10;99.60
24902;DHT22;31328;51.402;0.016;2024-01-15T03:28:55;2.10;99.60
24902;DHT22;31328;51.402;0.016;2024-01-15T03:31:21;2.00;99.50
24902;DHT22;31328;51.402;0.016;2024-01-15T03:33:48;2.10;99.60
24902;DHT22;31328;51.402;0.016;2024-01-15T03:36:14;2.00;99.60
24902;DHT22;31328;51.402;0.016;2024-01-15T03:38:41;2.00;99.60
24902;DHT22;31328;51.402;0.016;2024-01-15T03:41:08;2.00;99.50
24902;DHT22;31328;51.402;0.016;2024-01-15T03:43:34;2.00;99.50
24902;DHT22;31328;51.402;0.016;2024-01-15T03:46:01;2.00;99.60
24902;DHT22;31328;51.402;0.016;2024-01-15T03:48:28;2.00;99.60
24902;DHT22;31328;51.402;0.016;2024-01-15T03:50:54;2.00;99.60
24902;DHT22;31328;51.402;0.016;2024-01-15T03:53:21;2.00;99.60
24902;DHT22;31328;51.402;0.016;2024-01-15T03:55:47;2.00;99.60
24902;DHT22;31328;51.402;0.016;2024-01-15T03:58:13;2.00;99.60
24902;DHT22;31328;51.402;0.016;2024-01-15T04:00:41;2.00;99.60
24902;DHT22;31328;51.402;0.016;2024-01-15T04:03:08;1.90;99.60
24902;DHT22;31328;51.402;0.016;2024-01-15T04:05:34;1.90;99.60
24902;DHT22;31328;51.402;0.016;2024-01-15T04:08:01;1.90;99.60
24902;DHT22;31328;51.402;0.016;2024-01-15T04:10:27;1.80;99.50
24902;DHT22;31328;51.402;0.016;2024-01-15T04:12:53;1.80;99.50
24902;DHT22;31328;51.402;0.016;2024-01-15T04:15:20;1.80;99.60
24902;DHT22;31328;51.402;0.016;2024-01-15T04:17:46;1.80;99.50
24902;DHT22;31328;51.402;0.016;2024-01-15T04:20:12;1.80;99.50
24902;DHT22;31328;51.402;0.016;2024-01-15T04:22:39;1.80;99.50
24902;DHT22;31328;51.402;0.016;2024-01-15T04:25:05;1.70;99.50
24902;DHT22;31328;51.402;0.016;2024-01-15T04:27:32;1.70;99.60
24902;DHT22;31328;51.402;0.016;2024-01-15T04:29:58;1.70;99.60
24902;DHT22;31328;51.402;0.016;2024-01-15T04:32:24;1.60;99.60
24902;DHT22;31328;51.402;0.016;2024-01-15T04:34:51;1.50;99.60
24902;DHT22;31328;51.402;0.016;2024-01-15T04:37:17;1.60;99.60
24902;DHT22;31328;51.402;0.016;2024-01-15T04:39:43;1.60;99.60
24902;DHT22;31328;51.402;0.016;2024-01-15T04:42:10;1.60;99.60
24902;DHT22;31328;51.402;0.016;2024-01-15T04:44:36;1.50;99.60
24902;DHT22;31328;51.402;0.016;2024-01-15T04:47:03;1.60;99.60
24902;DHT22;31328;51.402;0.016;2024-01-15T04:49:29;1.50;99.60
24902;DHT22;31328;51.402;0.016;2024-01-15T04:51:56;1.60;99.70
24902;DHT22;31328;51.402;0.016;2024-01-15T04:54:22;1.60;99.70
24902;DHT22;31328;51.402;0.016;2024-01-15T04:56:48;1.60;99.70
24902;DHT22;31328;51.402;0.016;2024-01-15T04:59:15;1.60;99.60
24902;DHT22;31328;51.402;0.016;2024-01-15T05:01:41;1.60;99.60
24902;DHT22;31328;51.402;0.016;2024-01-15T05:04:08;1.60;99.50
24902;DHT22;31328;51.402;0.016;2024-01-15T05:06:34;1.70;99.70
24902;DHT22;31328;51.402;0.016;2024-01-15T05:09:01;1.60;99.50
24902;DHT22;31328;51.402;0.016;2024-01-15T05:11:27;1.60;99.50
24902;DHT22;31328;51.402;0.016;2024-01-15T05:13:53;1.60;99.60
24902;DHT22;31328;51.402;0.016;2024-01-15T05:16:20;1.60;99.60
24902;DHT22;31328;51.402;0.016;2024-01-15T05:18:46;1.60;99.60
24902;DHT22;31328;51.402;0.016;2024-01-15T05:21:12;1.60;99.70
24902;DHT22;31328;51.402;0.016;2024-01-15T05:23:39;1.60;99.70
24902;DHT22;31328;51.402;0.016;2024-01-15T05:26:05;1.60;99.70
24902;DHT22;31328;51.402;0.016;2024-01-15T05:28:31;1.60;99.60
24902;DHT22;31328;51.402;0.016;2024-01-15T05:30:58;1.60;99.70
24902;DHT22;31328;51.402;0.016;2024-01-15T05:33:24;1.70;99.70
24902;DHT22;31328;51.402;0.016;2024-01-15T05:35:51;1.60;99.70
24902;DHT22;31328;51.402;0.016;2024-01-15T05:38:17;1.70;99.70
24902;DHT22;31328;51.402;0.016;2024-01-15T05:40:43;1.70;99.70
24902;DHT22;31328;51.402;0.016;2024-01-15T05:43:10;1.70;99.70
24902;DHT22;31328;51.402;0.016;2024-01-15T05:45:38;1.70;99.90
24902;DHT22;31328;51.402;0.016;2024-01-15T05:48:05;1.60;99.60
24902;DHT22;31328;51.402;0.016;2024-01-15T05:50:31;1.60;99.70
24902;DHT22;31328;51.402;0.016;2024-01-15T05:52:58;1.60;99.80
24902;DHT22;31328;51.402;0.016;2024-01-15T05:55:24;1.60;99.80
24902;DHT22;31328;51.402;0.016;2024-01-15T05:57:50;1.60;99.70
24902;DHT22;31328;51.402;0.016;2024-01-15T06:00:17;1.60;99.70
24902;DHT22;31328;51.402;0.016;2024-01-15T06:02:43;1.60;99.80
24902;DHT22;31328;51.402;0.016;2024-01-15T06:05:09;1.50;99.80
24902;DHT22;31328;51.402;0.016;2024-01-15T06:07:36;1.50;99.80
24902;DHT22;31328;51.402;0.016;2024-01-15T06:10:03;1.50;99.80
24902;DHT22;31328;51.402;0.016;2024-01-15T06:12:31;1.40;99.80
24902;DHT22;31328;51.402;0.016;2024-01-15T06:14:58;1.40;99.90
24902;DHT22;31328;51.402;0.016;2024-01-15T06:17:24;1.30;99.90
24902;DHT22;31328;51.402;0.016;2024-01-15T06:19:51;1.40;99.90
24902;DHT22;31328;51.402;0.016;2024-01-15T06:22:17;1.40;99.90
24902;DHT22;31328;51.402;0.016;2024-01-15T06:24:44;1.30;99.90
24902;DHT22;31328;51.402;0.016;2024-01-15T06:27:10;1.30;99.90
24902;DHT22;31328;51.402;0.016;2024-01-15T06:29:38;1.30;99.90
24902;DHT22;31328;51.402;0.016;2024-01-15T06:32:05;1.30;99.90
24902;DHT22;31328;51.402;0.016;2024-01-15T06:34:31;1.30;99.90
24902;DHT22;31328;51.402;0.016;2024-01-15T06:36:57;1.30;99.90
24902;DHT22;31328;51.402;0.016;2024-01-15T06:39:24;1.30;99.90
24902;DHT22;31328;51.402;0.016;2024-01-15T06:41:50;1.40;99.90
24902;DHT22;31328;51.402;0.016;2024-01-15T06:44:16;1.40;99.90
24902;DHT22;31328;51.402;0.016;2024-01-15T06:46:43;1.40;99.90
24902;DHT22;31328;51.402;0.016;2024-01-15T06:49:10;1.40;99.90
24902;DHT22;31328;51.402;0.016;2024-01-15T06:51:37;1.40;99.90
24902;DHT22;31328;51.402;0.016;2024-01-15T06:54:04;1.40;99.90
24902;DHT22;31328;51.402;0.016;2024-01-15T06:56:31;1.40;99.90
24902;DHT22;31328;51.402;0.016;2024-01-15T06:58:57;1.40;99.90
24902;DHT22;31328;51.402;0.016;2024-01-15T07:01:24;1.40;99.90
24902;DHT22;31328;51.402;0.016;2024-01-15T07:03:50;1.30;99.90
24902;DHT22;31328;51.402;0.016;2024-01-15T07:06:16;1.40;99.90
24902;DHT22;31328;51.402;0.016;2024-01-15T07:08:43;1.30;99.90
24902;DHT22;31328;51.402;0.016;2024-01-15T07:11:09;1.30;99.90
24902;DHT22;31328;51.402;0.016;2024-01-15T07:13:36;1.30;99.90
24902;DHT22;31328;51.402;0.016;2024-01-15T07:16:03;1.30;99.90
24902;DHT22;31328;51.402;0.016;2024-01-15T07:18:29;1.30;99.90
24902;DHT22;31328;51.402;0.016;2024-01-15T07:20:56;1.30;99.90
24902;DHT22;31328;51.402;0.016;2024-01-15T07:23:22;1.20;99.90
24902;DHT22;31328;51.402;0.016;2024-01-15T07:25:48;1.20;99.90
24902;DHT22;31328;51.402;0.016;2024-01-15T07:28:15;1.20;99.90
24902;DHT22;31328;51.402;0.016;2024-01-15T07:30:42;1.20;99.90
24902;DHT22;31328;51.402;0.016;2024-01-15T07:33:09;1.20;99.90
24902;DHT22;31328;51.402;0.016;2024-01-15T07:35:35;1.20;99.90
24902;DHT22;31328;51.402;0.016;2024-01-15T07:38:01;1.20;99.90
24902;DHT22;31328;51.402;0.016;2024-01-15T07:40:28;1.20;99.90
24902;DHT22;31328;51.402;0.016;2024-01-15T07:42:54;1.20;99.90
24902;DHT22;31328;51.402;0.016;2024-01-15T07:45:20;1.20;99.90
24902;DHT22;31328;51.402;0.016;2024-01-15T07:47:47;1.20;99.90
24902;DHT22;31328;51.402;0.016;2024-01-15T07:50:13;1.20;99.90
24902;DHT22;31328;51.402;0.016;2024-01-15T07:52:40;1.20;99.80
24902;DHT22;31328;51.402;0.016;2024-01-15T07:55:08;1.20;99.80
24902;DHT22;31328;51.402;0.016;2024-01-15T07:57:34;1.20;99.80
24902;DHT22;31328;51.402;0.016;2024-01-15T08:00:03;1.20;99.70
24902;DHT22;31328;51.402;0.016;2024-01-15T08:02:32;1.20;99.70
24902;DHT22;31328;51.402;0.016;2024-01-15T08:04:58;1.20;99.70
24902;DHT22;31328;51.402;0.016;2024-01-15T08:07:25;1.20;99.70
24902;DHT22;31328;51.402;0.016;2024-01-15T08:09:52;1.20;99.90
24902;DHT22;31328;51.402;0.016;2024-01-15T08:12:19;1.30;99.70
24902;DHT22;31328;51.402;0.016;2024-01-15T08:14:45;1.20;99.60
24902;DHT22;31328;51.402;0.016;2024-01-15T08:17:11;1.20;99.60
24902;DHT22;31328;51.402;0.016;2024-01-15T08:19:38;1.20;99.60
24902;DHT22;31328;51.402;0.016;2024-01-15T08:22:07;1.30;99.60
24902;DHT22;31328;51.402;0.016;2024-01-15T08:24:33;1.20;99.60
24902;DHT22;31328;51.402;0.016;2024-01-15T08:27:00;1.30;99.60
24902;DHT22;31328;51.402;0.016;2024-01-15T08:29:27;1.30;99.60
24902;DHT22;31328;51.402;0.016;2024-01-15T08:31:53;1.30;99.60
24902;DHT22;31328;51.402;0.016;2024-01-15T08:34:20;1.30;99.60
24902;DHT22;31328;51.402;0.016;2024-01-15T08:36:46;1.40;99.60
24902;DHT22;31328;51.402;0.016;2024-01-15T08:39:13;1.40;99.50
24902;DHT22;31328;51.402;0.016;2024-01-15T08:41:39;1.40;99.50
24902;DHT22;31328;51.402;0.016;2024-01-15T08:44:05;1.40;99.50
24902;DHT22;31328;51.402;0.016;2024-01-15T08:46:34;1.40;99.40
24902;DHT22;31328;51.402;0.016;2024-01-15T08:49:01;1.50;99.40
24902;DHT22;31328;51.402;0.016;2024-01-15T08:51:27;1.50;99.40
24902;DHT22;31328;51.402;0.016;2024-01-15T08:53:54;1.50;99.50
24902;DHT22;31328;51.402;0.016;2024-01-15T08:56:21;1.50;99.40
24902;DHT22;31328;51.402;0.016;2024-01-15T08:58:47;1.50;99.30
24902;DHT22;31328;51.402;0.016;2024-01-15T09:01:13;1.50;99.30
24902;DHT22;31328;51.402;0.016;2024-01-15T09:03:40;1.60;99.30
24902;DHT22;31328;51.402;0.016;2024-01-15T09:06:08;1.60;99.40
24902;DHT22;31328;51.402;0.016;2024-01-15T09:08:35;1.60;99.30
24902;DHT22;31328;51.402;0.016;2024-01-15T09:11:02;1.70;99.30
24902;DHT22;31328;51.402;0.016;2024-01-15T09:13:29;1.70;99.30
24902;DHT22;31328;51.402;0.016;2024-01-15T09:18:23;1.70;99.20
24902;DHT22;31328;51.402;0.016;2024-01-15T09:20:50;1.80;99.20
24902;DHT22;31328;51.402;0.016;2024-01-15T09:23:16;1.80;99.20
24902;DHT22;31328;51.402;0.016;2024-01-15T09:25:43;1.80;99.10
24902;DHT22;31328;51.402;0.016;2024-01-15T09:28:09;1.80;99.10
24902;DHT22;31328;51.402;0.016;2024-01-15T09:30:36;1.90;99.20
24902;DHT22;31328;51.402;0.016;2024-01-15T09:33:02;1.80;99.10
24902;DHT22;31328;51.402;0.016;2024-01-15T09:35:29;1.90;99.10
24902;DHT22;31328;51.402;0.016;2024-01-15T09:37:55;1.90;99.10
24902;DHT22;31328;51.402;0.016;2024-01-15T09:40:22;2.00;99.00
24902;DHT22;31328;51.402;0.016;2024-01-15T09:42:50;2.00;99.00
24902;DHT22;31328;51.402;0.016;2024-01-15T09:45:16;2.00;98.90
24902;DHT22;31328;51.402;0.016;2024-01-15T09:47:43;2.00;98.90
24902;DHT22;31328;51.402;0.016;2024-01-15T09:50:09;2.00;98.90
24902;DHT22;31328;51.402;0.016;2024-01-15T09:52:36;2.10;98.90
24902;DHT22;31328;51.402;0.016;2024-01-15T09:55:03;2.10;98.90
24902;DHT22;31328;51.402;0.016;2024-01-15T09:57:31;2.10;98.80
24902;DHT22;31328;51.402;0.016;2024-01-15T10:00:01;2.20;98.80
24902;DHT22;31328;51.402;0.016;2024-01-15T10:02:30;2.20;98.80
24902;DHT22;31328;51.402;0.016;2024-01-15T10:04:57;2.20;98.70
24902;DHT22;31328;51.402;0.016;2024-01-15T10:07:25;2.30;98.70
24902;DHT22;31328;51.402;0.016;2024-01-15T10:09:52;2.30;98.60
24902;DHT22;31328;51.402;0.016;2024-01-15T10:12:19;2.30;98.60
24902;DHT22;31328;51.402;0.016;2024-01-15T10:14:47;2.30;98.60
24902;DHT22;31328;51.402;0.016;2024-01-15T10:17:21;2.40;98.60
24902;DHT22;31328;51.402;0.016;2024-01-15T10:19:48;2.40;98.40
24902;DHT22;31328;51.402;0.016;2024-01-15T10:22:14;2.40;98.20
24902;DHT22;31328;51.402;0.016;2024-01-15T10:24:41;2.40;98.20
24902;DHT22;31328;51.402;0.016;2024-01-15T10:27:09;2.40;97.90
24902;DHT22;31328;51.402;0.016;2024-01-15T10:29:36;2.50;98.10
24902;DHT22;31328;51.402;0.016;2024-01-15T10:32:06;2.50;98.10
24902;DHT22;31328;51.402;0.016;2024-01-15T10:34:32;2.50;98.00
24902;DHT22;31328;51.402;0.016;2024-01-15T10:36:59;2.60;97.90
24902;DHT22;31328;51.402;0.016;2024-01-15T10:39:25;2.60;97.70
24902;DHT22;31328;51.402;0.016;2024-01-15T10:41:51;2.60;97.40
24902;DHT22;31328;51.402;0.016;2024-01-15T10:44:18;2.60;97.50
24902;DHT22;31328;51.402;0.016;2024-01-15T10:46:45;2.70;97.40
24902;DHT22;31328;51.402;0.016;2024-01-15T10:49:13;2.70;97.50
24902;DHT22;31328;51.402;0.016;2024-01-15T10:51:40;2.70;97.50
24902;DHT22;31328;51.402;0.016;2024-01-15T10:54:09;2.70;97.30
24902;DHT22;31328;51.402;0.016;2024-01-15T10:56:37;2.80;97.20
24902;DHT22;31328;51.402;0.016;2024-01-15T10:59:05;2.80;97.20
24902;DHT22;31328;51.402;0.016;2024-01-15T11:01:33;2.80;97.10
24902;DHT22;31328;51.402;0.016;2024-01-15T11:04:01;2.80;97.00
24902;DHT22;31328;51.402;0.016;2024-01-15T11:06:28;2.90;97.30
24902;DHT22;31328;51.402;0.016;2024-01-15T11:09:07;2.90;96.80
24902;DHT22;31328;51.402;0.016;2024-01-15T11:11:41;2.90;96.80
24902;DHT22;31328;51.402;0.016;2024-01-15T11:14:08;3.00;96.80
24902;DHT22;31328;51.402;0.016;2024-01-15T11:16:54;3.00;96.80
24902;DHT22;31328;51.402;0.016;2024-01-15T11:19:22;3.10;96.70
24902;DHT22;31328;51.402;0.016;2024-01-15T11:21:49;3.00;96.70
24902;DHT22;31328;51.402;0.016;2024-01-15T11:24:34;3.10;96.50
24902;DHT22;31328;51.402;0.016;2024-01-15T11:27:02;3.20;96.70
24902;DHT22;31328;51.402;0.016;2024-01-15T11:29:29;3.20;96.70
24902;DHT22;31328;51.402;0.016;2024-01-15T11:32:01;3.20;96.40
24902;DHT22;31328;51.402;0.016;2024-01-15T11:34:50;3.30;96.50
24902;DHT22;31328;51.402;0.016;2024-01-15T11:37:17;3.30;96.50
24902;DHT22;31328;51.402;0.016;2024-01-15T11:39:43;3.40;96.10
24902;DHT22;31328;51.402;0.016;2024-01-15T11:42:11;3.40;96.20
24902;DHT22;31328;51.402;0.016;2024-01-15T11:44:38;3.40;96.10
24902;DHT22;31328;51.402;0.016;2024-01-15T11:47:11;3.40;96.20
24902;DHT22;31328;51.402;0.016;2024-01-15T11:50:02;3.50;96.10
24902;DHT22;31328;51.402;0.016;2024-01-15T11:52:35;3.50;96.20
24902;DHT22;31328;51.402;0.016;2024-01-15T11:55:06;3.50;96.00
24902;DHT22;31328;51.402;0.016;2024-01-15T12:00:04;3.60;95.90
24902;DHT22;31328;51.402;0.016;2024-01-15T12:02:40;3.60;95.70
24902;DHT22;31328;51.402;0.016;2024-01-15T12:05:11;3.60;95.70
24902;DHT22;31328;51.402;0.016;2024-01-15T12:07:45;3.60;95.50
24902;DHT22;31328;51.402;0.016;2024-01-15T12:10:13;3.60;95.70
24902;DHT22;31328;51.402;0.016;2024-01-15T12:12:58;3.70;95.70
24902;DHT22;31328;51.402;0.016;2024-01-15T12:15:28;3.70;95.70
24902;DHT22;31328;51.402;0.016;2024-01-15T12:17:57;3.70;95.50
24902;DHT22;31328;51.402;0.016;2024-01-15T12:20:27;3.70;95.30
24902;DHT22;31328;51.402;0.016;2024-01-15T12:22:53;3.80;95.50
24902;DHT22;31328;51.402;0.016;2024-01-15T12:25:25;3.70;95.50
24902;DHT22;31328;51.402;0.016;2024-01-15T12:27:53;3.80;95.40
24902;DHT22;31328;51.402;0.016;2024-01-15T12:30:20;3.80;95.40
24902;DHT22;31328;51.402;0.016;2024-01-15T12:32:46;3.80;95.50
24902;DHT22;31328;51.402;0.016;2024-01-15T12:35:14;3.80;95.30
24902;DHT22;31328;51.402;0.016;2024-01-15T12:37:42;3.90;95.30
24902;DHT22;31328;51.402;0.016;2024-01-15T12:40:09;3.90;94.90
24902;DHT22;31328;51.402;0.016;2024-01-15T12:42:37;3.90;95.10
24902;DHT22;31328;51.402;0.016;2024-01-15T12:45:06;3.90;94.80
24902;DHT22;31328;51.402;0.016;2024-01-15T12:47:32;3.90;94.90
24902;DHT22;31328;51.402;0.016;2024-01-15T12:49:59;3.90;95.00
24902;DHT22;31328;51.402;0.016;2024-01-15T12:52:29;3.90;95.00
24902;DHT22;31328;51.402;0.016;2024-01-15T12:54:55;3.90;94.70
24902;DHT22;31328;51.402;0.016;2024-01-15T12:57:22;3.90;94.70
24902;DHT22;31328;51.402;0.016;2024-01-15T12:59:49;3.80;94.60
24902;DHT22;31328;51.402;0.016;2024-01-15T13:02:16;4.00;94.60
24902;DHT22;31328;51.402;0.016;2024-01-15T13:04:42;3.90;94.60
24902;DHT22;31328;51.402;0.016;2024-01-15T13:07:09;3.80;94.50
24902;DHT22;31328;51.402;0.016;2024-01-15T13:09:36;3.90;94.70
24902;DHT22;31328;51.402;0.016;2024-01-15T13:12:03;4.00;94.60
24902;DHT22;31328;51.402;0.016;2024-01-15T13:14:29;4.00;94.70
24902;DHT22;31328;51.402;0.016;2024-01-15T13:16:56;4.00;94.70
24902;DHT22;31328;51.402;0.016;2024-01-15T13:19:22;4.00;94.60
24902;DHT22;31328;51.402;0.016;2024-01-15T13:21:49;4.00;94.60
24902;DHT22;31328;51.402;0.016;2024-01-15T13:24:21;4.10;94.60
24902;DHT22;31328;51.402;0.016;2024-01-15T13:26:47;4.10;94.60
24902;DHT22;31328;51.402;0.016;2024-01-15T13:29:14;4.10;94.60
24902;DHT22;31328;51.402;0.016;2024-01-15T13:31:41;4.10;94.70
24902;DHT22;31328;51.402;0.016;2024-01-15T13:34:07;4.20;94.70
24902;DHT22;31328;51.402;0.016;2024-01-15T13:36:36;4.20;94.30
24902;DHT22;31328;51.402;0.016;2024-01-15T13:39:05;4.20;94.30
24902;DHT22;31328;51.402;0.016;2024-01-15T13:41:35;4.20;94.00
24902;DHT22;31328;51.402;0.016;2024-01-15T13:44:02;4.20;94.10
24902;DHT22;31328;51.402;0.016;2024-01-15T13:46:29;4.20;94.20
24902;DHT22;31328;51.402;0.016;2024-01-15T13:48:55;4.20;94.10
24902;DHT22;31328;51.402;0.016;2024-01-15T13:51:22;4.20;94.20
24902;DHT22;31328;51.402;0.016;2024-01-15T13:53:50;4.20;94.00
24902;DHT22;31328;51.402;0.016;2024-01-15T13:56:16;4.20;94.10
24902;DHT22;31328;51.402;0.016;2024-01-15T13:58:43;4.20;94.10
24902;DHT22;31328;51.402;0.016;2024-01-15T14:01:09;4.20;93.80
24902;DHT22;31328;51.402;0.016;2024-01-15T14:03:36;4.20;94.00
24902;DHT22;31328;51.402;0.016;2024-01-15T14:06:03;4.20;93.70
24902;DHT22;31328;51.402;0.016;2024-01-15T14:08:30;4.20;93.50
24902;DHT22;31328;51.402;0.016;2024-01-15T14:10:56;4.20;93.50
24902;DHT22;31328;51.402;0.016;2024-01-15T14:13:23;4.20;93.50
24902;DHT22;31328;51.402;0.016;2024-01-15T14:15:50;4.10;93.40
24902;DHT22;31328;51.402;0.016;2024-01-15T14:18:17;4.10;93.50
24902;DHT22;31328;51.402;0.016;2024-01-15T14:20:43;4.10;93.50
24902;DHT22;31328;51.402;0.016;2024-01-15T14:23:09;4.10;93.60
24902;DHT22;31328;51.402;0.016;2024-01-15T14:25:36;4.10;93.40
24902;DHT22;31328;51.402;0.016;2024-01-15T14:28:02;4.10;93.40
24902;DHT22;31328;51.402;0.016;2024-01-15T14:30:29;4.10;93.50
24902;DHT22;31328;51.402;0.016;2024-01-15T14:32:55;4.10;93.50
24902;DHT22;31328;51.402;0.016;2024-01-15T14:35:21;4.20;93.40
24902;DHT22;31328;51.402;0.016;2024-01-15T14:37:48;4.10;93.00
24902;DHT22;31328;51.402;0.016;2024-01-15T14:40:15;4.10;93.10
24902;DHT22;31328;51.402;0.016;2024-01-15T14:42:42;4.10;93.30
24902;DHT22;31328;51.402;0.016;2024-01-15T14:45:08;4.00;93.30
24902;DHT22;31328;51.402;0.016;2024-01-15T14:47:38;4.10;93.30
24902;DHT22;31328;51.402;0.016;2024-01-15T14:50:08;4.00;93.20
24902;DHT22;31328;51.402;0.016;2024-01-15T14:52:36;4.00;93.30
24902;DHT22;31328;51.402;0.016;2024-01-15T14:55:03;4.00;93.60
24902;DHT22;31328;51.402;0.016;2024-01-15T14:57:30;4.00;93.10
24902;DHT22;31328;51.402;0.016;2024-01-15T14:59:56;4.00;93.30
24902;DHT22;31328;51.402;0.016;2024-01-15T15:02:23;4.00;93.40
24902;DHT22;31328;51.402;0.016;2024-01-15T15:04:50;4.00;93.50
24902;DHT22;31328;51.402;0.016;2024-01-15T15:07:16;4.00;93.60
24902;DHT22;31328;51.402;0.016;2024-01-15T15:09:42;4.00;93.50
24902;DHT22;31328;51.402;0.016;2024-01-15T15:12:09;4.00;93.20
24902;DHT22;31328;51.402;0.016;2024-01-15T15:14:35;3.90;93.20
24902;DHT22;31328;51.402;0.016;2024-01-15T15:17:04;3.90;93.40
24902;DHT22;31328;51.402;0.016;2024-01-15T15:19:32;3.90;93.40
24902;DHT22;31328;51.402;0.016;2024-01-15T15:21:59;3.80;93.30
24902;DHT22;31328;51.402;0.016;2024-01-15T15:24:25;3.80;93.50
24902;DHT22;31328;51.402;0.016;2024-01-15T15:26:52;3.80;93.60
24902;DHT22;31328;51.402;0.016;2024-01-15T15:29:18;3.70;93.60
24902;DHT22;31328;51.402;0.016;2024-01-15T15:31:46;3.70;93.60
24902;DHT22;31328;51.402;0.016;2024-01-15T15:34:12;3.60;93.60
24902;DHT22;31328;51.402;0.016;2024-01-15T15:36:38;3.60;93.60
24902;DHT22;31328;51.402;0.016;2024-01-15T15:39:05;3.50;93.60
24902;DHT22;31328;51.402;0.016;2024-01-15T15:41:31;3.50;93.70
24902;DHT22;31328;51.402;0.016;2024-01-15T15:43:58;3.50;93.60
24902;DHT22;31328;51.402;0.016;2024-01-15T15:46:24;3.40;93.60
24902;DHT22;31328;51.402;0.016;2024-01-15T15:48:50;3.40;93.70
24902;DHT22;31328;51.402;0.016;2024-01-15T15:51:17;3.40;93.80